Time;durP1;ratioP1;P1;durP2;ratioP2;P2;SDS_P1;SDS_P2;PMS_P1;PMS_P2;Temp;Humidity;BMP_temperature;BMP_pressure;BME280_temperature;BME280_humidity;BME280_pressure;Samples;Min_cycle;Max_cycle;Signal;HPM_P1;HPM_P2
2022/03/01 00:00:21;;;;;;;8.68;6.45;;;;;;;;;;4947259;29;20198;-84
2022/03/01 00:02:48;;;;;;;7.57;6.40;;;;;;;;;;4941672;29;20489;-85
2022/03/01 00:05:15;;;;;;;9.95;6.75;;;;;;;;;;4958702;29;20304;-85
2022/03/01 00:07:42;;;;;;;8.15;7.13;;;;;;;;;;4941364;29;20207;-82
2022/03/01 00:10:10;;;;;;;8.10;6.90;;;;;;;;;;4948970;29;20219;-83
2022/03/01 00:12:39;;;;;;;11.52;7.15;;;;;;;;;;4938888;29;20210;-84
2022/03/01 00:15:06;;;;;;;8.38;6.80;;;;;;;;;;4936274;29;20206;-84
2022/03/01 00:17:34;;;;;;;8.77;7.35;;;;;;;;;;4953083;28;20210;-83
2022/03/01 00:20:01;;;;;;;7.35;6.28;;;;;;;;;;4950380;29;20209;-82
2022/03/01 00:22:28;;;;;;;9.93;7.35;;;;;;;;;;4935264;29;20207;-81
2022/03/01 00:24:55;;;;;;;9.75;6.68;;;;;;;;;;4944549;29;20218;-82
2022/03/01 00:27:22;;;;;;;9.30;6.95;;;;;;;;;;4944386;29;20191;-82
2022/03/01 00:29:51;;;;;;;8.80;6.40;;;;;;;;;;4951375;29;20217;-81
2022/03/01 00:32:18;;;;;;;10.95;7.80;;;;;;;;;;4957336;29;20203;-82
2022/03/01 00:34:45;;;;;;;12.10;8.15;;;;;;;;;;4957942;29;20198;-82
2022/03/01 00:37:12;;;;;;;10.68;6.68;;;;;;;;;;4956453;29;20198;-79
2022/03/01 00:39:39;;;;;;;10.68;8.13;;;;;;;;;;4959983;28;20618;-81
2022/03/01 00:42:06;;;;;;;11.18;8.15;;;;;;;;;;4953872;28;20186;-81
2022/03/01 00:44:33;;;;;;;8.80;6.80;;;;;;;;;;4949743;29;20203;-83
2022/03/01 00:47:02;;;;;;;8.95;7.20;;;;;;;;;;4949424;29;20207;-84
2022/03/01 00:49:29;;;;;;;8.85;6.95;;;;;;;;;;4954951;29;20202;-82
2022/03/01 00:51:56;;;;;;;8.25;7.25;;;;;;;;;;4965233;23;20195;-74
2022/03/01 00:54:23;;;;;;;9.50;8.25;;;;;;;;;;4991253;28;20197;-74
2022/03/01 00:56:50;;;;;;;8.90;7.95;;;;;;;;;;4988043;28;20652;-74
2022/03/01 00:59:17;;;;;;;9.52;7.35;;;;;;;;;;4989983;28;20225;-73
2022/03/01 01:01:44;;;;;;;8.35;7.32;;;;;;;;;;4989638;28;20327;-75
2022/03/01 01:04:13;;;;;;;9.73;7.63;;;;;;;;;;4989834;28;20212;-75
2022/03/01 01:06:40;;;;;;;12.40;7.35;;;;;;;;;;4985711;28;20674;-75
2022/03/01 01:09:08;;;;;;;12.18;8.45;;;;;;;;;;4991832;28;20220;-75
2022/03/01 01:11:36;;;;;;;12.23;7.35;;;;;;;;;;4989529;28;20224;-76
2022/03/01 01:14:03;;;;;;;10.20;7.50;;;;;;;;;;4990668;28;20211;-75
2022/03/01 01:16:30;;;;;;;7.03;6.32;;;;;;;;;;4986188;28;20288;-76
2022/03/01 01:18:57;;;;;;;14.00;7.65;;;;;;;;;;4992868;28;20216;-76
2022/03/01 01:22:39;;;;;;;9.68;6.05;;;;;;;;;;4986599;28;20201;-76
2022/03/01 01:24:13;;;;;;;8.68;6.93;;;;;;;;;;4974847;28;20716;-77
2022/03/01 01:26:41;;;;;;;11.00;7.07;;;;;;;;;;4976355;28;20197;-76
2022/03/01 01:29:08;;;;;;;8.40;7.35;;;;;;;;;;4978384;28;20197;-77
2022/03/01 01:31:35;;;;;;;9.52;7.15;;;;;;;;;;4969728;28;20213;-77
2022/03/01 01:34:02;;;;;;;9.57;7.40;;;;;;;;;;4967747;28;20597;-75
2022/03/01 01:36:30;;;;;;;10.00;7.20;;;;;;;;;;4967671;28;20984;-76
2022/03/01 01:38:58;;;;;;;8.20;7.25;;;;;;;;;;4971508;28;20198;-76
2022/03/01 01:41:25;;;;;;;11.68;8.10;;;;;;;;;;4972650;28;20205;-76
2022/03/01 01:43:52;;;;;;;8.88;6.60;;;;;;;;;;4971037;28;20580;-76
2022/03/01 01:46:19;;;;;;;9.88;7.13;;;;;;;;;;4971153;28;20197;-75
2022/03/01 01:48:46;;;;;;;9.07;6.82;;;;;;;;;;4972571;28;20197;-75
2022/03/01 01:51:13;;;;;;;9.85;6.40;;;;;;;;;;4967714;28;20213;-74
2022/03/01 01:53:42;;;;;;;10.25;7.82;;;;;;;;;;4974782;28;20219;-74
2022/03/01 01:56:09;;;;;;;8.48;6.65;;;;;;;;;;4969469;28;20201;-73
2022/03/01 01:58:36;;;;;;;7.93;6.53;;;;;;;;;;4988920;28;20197;-73
2022/03/01 02:01:03;;;;;;;8.52;7.55;;;;;;;;;;4977521;28;20205;-74
2022/03/01 02:03:30;;;;;;;8.13;6.18;;;;;;;;;;4965447;28;20273;-73
2022/03/01 02:05:57;;;;;;;9.05;7.40;;;;;;;;;;4968396;28;20403;-73
2022/03/01 02:08:29;;;;;;;11.98;6.90;;;;;;;;;;4969845;28;20192;-73
2022/03/01 02:10:58;;;;;;;9.68;7.13;;;;;;;;;;4977222;28;20271;-75
2022/03/01 02:13:25;;;;;;;12.18;7.47;;;;;;;;;;4976073;28;20190;-74
2022/03/01 02:15:52;;;;;;;9.77;6.43;;;;;;;;;;4978638;28;20208;-73
2022/03/01 02:18:19;;;;;;;9.27;7.28;;;;;;;;;;4971974;28;20695;-75
2022/03/01 02:20:48;;;;;;;9.43;7.18;;;;;;;;;;4973366;28;20201;-75
2022/03/01 02:23:15;;;;;;;9.30;6.93;;;;;;;;;;4967941;28;20274;-76
2022/03/01 02:25:42;;;;;;;10.65;7.68;;;;;;;;;;4976079;28;20204;-75
2022/03/01 02:28:09;;;;;;;10.40;7.35;;;;;;;;;;4986292;28;20607;-75
2022/03/01 02:30:36;;;;;;;10.48;8.00;;;;;;;;;;4969821;28;20225;-75
2022/03/01 02:33:04;;;;;;;11.65;6.82;;;;;;;;;;4969856;28;20205;-75
2022/03/01 02:35:31;;;;;;;13.90;8.15;;;;;;;;;;4968782;28;20194;-75
2022/03/01 02:37:59;;;;;;;7.85;7.03;;;;;;;;;;4970312;28;20201;-74
2022/03/01 02:40:27;;;;;;;9.98;7.72;;;;;;;;;;4970961;28;20194;-75
2022/03/01 02:42:54;;;;;;;9.73;7.85;;;;;;;;;;4971138;28;20196;-76
2022/03/01 02:45:21;;;;;;;9.32;8.23;;;;;;;;;;4973474;28;20197;-75
2022/03/01 02:47:48;;;;;;;8.65;7.30;;;;;;;;;;4975261;28;20193;-75
2022/03/01 02:50:16;;;;;;;8.52;7.32;;;;;;;;;;4968908;28;20222;-75
2022/03/01 02:52:43;;;;;;;11.75;6.93;;;;;;;;;;4969612;28;20558;-77
2022/03/01 02:55:12;;;;;;;8.18;6.30;;;;;;;;;;4981005;28;20193;-76
2022/03/01 02:57:40;;;;;;;10.10;8.23;;;;;;;;;;4979705;28;20204;-76
2022/03/01 03:00:07;;;;;;;10.63;7.97;;;;;;;;;;4976300;28;20189;-76
2022/03/01 03:02:34;;;;;;;8.27;6.75;;;;;;;;;;4962132;28;20198;-75
2022/03/01 03:05:01;;;;;;;9.23;7.35;;;;;;;;;;4964729;28;20197;-74
2022/03/01 03:07:28;;;;;;;9.73;7.53;;;;;;;;;;4969944;28;20190;-74
2022/03/01 03:09:56;;;;;;;8.77;6.53;;;;;;;;;;4962224;28;20229;-74
2022/03/01 03:12:24;;;;;;;7.95;6.55;;;;;;;;;;4964059;28;20209;-74
2022/03/01 03:14:51;;;;;;;9.18;7.15;;;;;;;;;;4964933;28;20199;-74
2022/03/01 03:17:18;;;;;;;13.13;7.30;;;;;;;;;;4969296;28;20571;-74
2022/03/01 03:19:45;;;;;;;10.98;7.30;;;;;;;;;;4968546;28;20660;-74
2022/03/01 03:22:12;;;;;;;9.40;8.18;;;;;;;;;;4965738;28;20578;-73
2022/03/01 03:24:40;;;;;;;11.68;8.07;;;;;;;;;;4969038;28;20753;-74
2022/03/01 03:27:07;;;;;;;12.38;7.60;;;;;;;;;;4970591;28;20691;-74
2022/03/01 03:29:35;;;;;;;8.60;7.38;;;;;;;;;;4978990;28;20189;-74
2022/03/01 03:32:02;;;;;;;11.43;8.05;;;;;;;;;;4972778;28;20213;-74
2022/03/01 03:34:29;;;;;;;8.82;7.75;;;;;;;;;;4971540;28;20193;-74
2022/03/01 03:36:57;;;;;;;9.55;7.45;;;;;;;;;;4968427;28;20202;-73
2022/03/01 03:39:24;;;;;;;9.02;7.32;;;;;;;;;;4964527;28;20205;-76
2022/03/01 03:41:51;;;;;;;12.32;7.85;;;;;;;;;;4978988;28;20209;-75
2022/03/01 03:44:18;;;;;;;10.05;8.40;;;;;;;;;;4974212;28;20198;-76
2022/03/01 03:46:46;;;;;;;16.20;9.05;;;;;;;;;;4981583;28;20682;-75
2022/03/01 03:49:13;;;;;;;12.80;8.93;;;;;;;;;;4972413;28;20198;-75
2022/03/01 03:51:40;;;;;;;12.00;8.20;;;;;;;;;;4970354;28;20221;-76
2022/03/01 03:54:08;;;;;;;9.15;7.75;;;;;;;;;;4976272;28;20201;-75
2022/03/01 03:56:35;;;;;;;9.57;7.82;;;;;;;;;;4982213;28;20189;-75
2022/03/01 03:59:02;;;;;;;9.50;8.38;;;;;;;;;;4983236;28;20200;-74
2022/03/01 04:01:29;;;;;;;11.10;8.82;;;;;;;;;;4977095;28;20202;-74
2022/03/01 04:03:59;;;;;;;13.93;7.85;;;;;;;;;;4971495;28;20202;-74
2022/03/01 04:06:26;;;;;;;14.93;8.77;;;;;;;;;;4973420;28;20209;-74
2022/03/01 04:08:53;;;;;;;15.18;8.93;;;;;;;;;;4975096;28;20208;-75
2022/03/01 04:11:20;;;;;;;10.57;8.30;;;;;;;;;;4973239;28;20222;-75
2022/03/01 04:13:47;;;;;;;10.23;8.63;;;;;;;;;;4974685;28;20198;-74
2022/03/01 04:16:14;;;;;;;9.95;7.65;;;;;;;;;;4969528;28;20213;-75
2022/03/01 04:18:41;;;;;;;11.55;8.05;;;;;;;;;;4975685;28;20206;-75
2022/03/01 04:21:10;;;;;;;9.40;8.02;;;;;;;;;;4984506;28;20215;-75
2022/03/01 04:23:37;;;;;;;11.75;8.68;;;;;;;;;;4971633;28;20215;-75
2022/03/01 04:26:05;;;;;;;11.02;8.27;;;;;;;;;;4972549;28;20288;-75
2022/03/01 04:28:33;;;;;;;13.00;8.60;;;;;;;;;;4970574;28;20210;-74
2022/03/01 04:31:00;;;;;;;12.35;8.70;;;;;;;;;;4973939;28;20221;-75
2022/03/01 04:33:27;;;;;;;9.43;8.30;;;;;;;;;;4971164;28;20530;-75
2022/03/01 04:35:54;;;;;;;9.88;8.02;;;;;;;;;;4976284;28;20198;-75
2022/03/01 04:38:25;;;;;;;10.45;8.70;;;;;;;;;;4972961;28;20213;-75
2022/03/01 04:40:52;;;;;;;11.13;9.50;;;;;;;;;;4972274;28;20542;-75
2022/03/01 04:43:19;;;;;;;10.20;7.53;;;;;;;;;;4976417;28;20201;-75
2022/03/01 04:45:46;;;;;;;11.30;8.35;;;;;;;;;;4972153;28;20206;-75
2022/03/01 04:48:13;;;;;;;11.02;8.38;;;;;;;;;;4969536;28;20205;-75
2022/03/01 04:50:41;;;;;;;10.20;8.13;;;;;;;;;;4975342;28;20201;-75
2022/03/01 04:53:08;;;;;;;12.07;8.98;;;;;;;;;;4972371;28;20202;-75
2022/03/01 04:55:37;;;;;;;12.10;8.25;;;;;;;;;;4970145;28;20205;-76
2022/03/01 04:58:04;;;;;;;13.05;8.82;;;;;;;;;;4973793;28;20204;-75
2022/03/01 05:00:31;;;;;;;8.60;7.80;;;;;;;;;;4968789;28;20205;-76
2022/03/01 05:02:58;;;;;;;9.82;8.63;;;;;;;;;;4973418;28;20236;-75
2022/03/01 05:05:25;;;;;;;10.00;7.90;;;;;;;;;;4977681;28;20193;-75
2022/03/01 05:07:52;;;;;;;12.30;7.47;;;;;;;;;;4973420;28;20201;-75
2022/03/01 05:10:21;;;;;;;11.73;8.20;;;;;;;;;;4973857;28;20252;-74
2022/03/01 05:12:51;;;;;;;11.38;7.63;;;;;;;;;;4977216;28;20256;-74
2022/03/01 05:15:18;;;;;;;9.77;8.70;;;;;;;;;;4976011;28;20696;-73
2022/03/01 05:17:46;;;;;;;13.00;9.30;;;;;;;;;;4973041;28;20201;-74
2022/03/01 05:20:13;;;;;;;9.30;7.93;;;;;;;;;;4973845;28;20194;-74
2022/03/01 05:22:40;;;;;;;11.07;8.38;;;;;;;;;;4970387;28;20201;-75
2022/03/01 05:25:09;;;;;;;10.10;8.00;;;;;;;;;;4971166;28;20225;-74
2022/03/01 05:27:36;;;;;;;12.32;7.85;;;;;;;;;;4971335;28;20201;-74
2022/03/01 05:30:05;;;;;;;10.68;8.07;;;;;;;;;;4978831;28;20208;-74
2022/03/01 05:32:34;;;;;;;9.10;7.57;;;;;;;;;;4970202;28;20267;-74
2022/03/01 05:35:02;;;;;;;9.23;7.93;;;;;;;;;;4969572;28;20201;-74
2022/03/01 05:37:29;;;;;;;9.57;7.50;;;;;;;;;;4971242;28;20239;-75
2022/03/01 05:39:56;;;;;;;10.68;8.65;;;;;;;;;;4979074;28;20212;-74
2022/03/01 05:42:23;;;;;;;14.70;8.52;;;;;;;;;;4973584;28;20210;-75
2022/03/01 05:44:50;;;;;;;11.13;7.68;;;;;;;;;;4976531;28;20197;-75
2022/03/01 05:47:19;;;;;;;9.40;8.07;;;;;;;;;;4972472;28;20545;-75
2022/03/01 05:49:46;;;;;;;12.23;7.65;;;;;;;;;;4977105;28;20284;-76
2022/03/01 05:52:13;;;;;;;9.07;7.60;;;;;;;;;;4983191;28;20646;-74
2022/03/01 05:54:40;;;;;;;12.55;8.18;;;;;;;;;;4964039;28;20289;-75
2022/03/01 05:57:08;;;;;;;10.13;7.40;;;;;;;;;;4971802;28;20201;-74
2022/03/01 05:59:35;;;;;;;10.43;7.55;;;;;;;;;;4980051;28;20189;-74
2022/03/01 06:02:02;;;;;;;8.68;7.03;;;;;;;;;;4974913;28;20198;-74
2022/03/01 06:04:30;;;;;;;8.10;6.63;;;;;;;;;;4973339;28;20198;-75
2022/03/01 06:06:57;;;;;;;11.32;8.95;;;;;;;;;;4976328;28;20206;-75
2022/03/01 06:09:24;;;;;;;10.50;7.55;;;;;;;;;;4967868;28;20209;-74
2022/03/01 06:11:51;;;;;;;11.20;9.43;;;;;;;;;;4971430;28;20229;-74
2022/03/01 06:14:19;;;;;;;10.23;8.80;;;;;;;;;;4968862;28;20233;-75
2022/03/01 06:16:46;;;;;;;10.10;7.95;;;;;;;;;;4971395;28;20206;-74
2022/03/01 06:19:13;;;;;;;15.43;7.78;;;;;;;;;;4977070;28;20204;-76
2022/03/01 06:21:41;;;;;;;15.55;8.75;;;;;;;;;;4976136;28;20198;-75
2022/03/01 06:24:08;;;;;;;9.95;8.18;;;;;;;;;;4968832;28;20252;-75
2022/03/01 06:26:36;;;;;;;9.63;7.38;;;;;;;;;;4972719;28;20190;-74
2022/03/01 06:29:03;;;;;;;10.77;7.80;;;;;;;;;;4970730;28;20197;-75
2022/03/01 06:31:30;;;;;;;12.15;7.50;;;;;;;;;;4969920;28;20221;-75
2022/03/01 06:33:57;;;;;;;9.05;7.35;;;;;;;;;;4970182;28;20185;-75
2022/03/01 06:36:24;;;;;;;10.35;7.32;;;;;;;;;;4962002;28;20197;-75
2022/03/01 06:38:53;;;;;;;14.57;8.88;;;;;;;;;;4963322;28;20200;-76
2022/03/01 06:41:20;;;;;;;9.32;7.30;;;;;;;;;;4969873;28;20212;-76
2022/03/01 06:43:47;;;;;;;7.93;6.80;;;;;;;;;;4968896;28;20196;-77
2022/03/01 06:46:15;;;;;;;10.35;7.82;;;;;;;;;;4966509;28;20193;-76
2022/03/01 06:48:42;;;;;;;12.00;7.97;;;;;;;;;;4963700;28;20210;-76
2022/03/01 06:51:09;;;;;;;11.38;8.38;;;;;;;;;;4971757;28;20202;-74
2022/03/01 06:53:36;;;;;;;10.63;7.40;;;;;;;;;;4967398;28;20213;-74
2022/03/01 06:56:05;;;;;;;9.88;7.00;;;;;;;;;;4969718;28;20213;-74
2022/03/01 06:58:33;;;;;;;12.77;6.65;;;;;;;;;;4970147;28;20198;-74
2022/03/01 07:01:00;;;;;;;13.52;8.07;;;;;;;;;;4969485;28;20212;-74
2022/03/01 07:03:28;;;;;;;8.07;7.28;;;;;;;;;;4971261;28;20284;-75
2022/03/01 07:05:55;;;;;;;9.38;7.43;;;;;;;;;;4971436;28;20208;-74
2022/03/01 07:08:23;;;;;;;11.68;8.40;;;;;;;;;;4960463;28;20194;-75
2022/03/01 07:10:50;;;;;;;10.38;7.55;;;;;;;;;;4968420;28;20209;-75
2022/03/01 07:13:19;;;;;;;11.68;8.68;;;;;;;;;;4970279;28;20221;-75
2022/03/01 07:15:46;;;;;;;10.15;7.40;;;;;;;;;;4966271;28;20673;-75
2022/03/01 07:18:13;;;;;;;12.02;8.48;;;;;;;;;;4968884;28;20212;-76
2022/03/01 07:20:40;;;;;;;13.13;8.70;;;;;;;;;;4981813;28;20194;-75
2022/03/01 07:23:08;;;;;;;16.30;7.97;;;;;;;;;;4966837;28;20221;-75
2022/03/01 07:25:35;;;;;;;9.65;7.45;;;;;;;;;;4968754;28;20198;-75
2022/03/01 07:28:02;;;;;;;10.82;7.68;;;;;;;;;;4974250;28;20545;-76
2022/03/01 07:30:31;;;;;;;11.65;8.05;;;;;;;;;;4973403;28;20703;-76
2022/03/01 07:32:59;;;;;;;9.45;7.82;;;;;;;;;;4969116;28;20222;-75
2022/03/01 07:35:26;;;;;;;9.15;7.15;;;;;;;;;;4974102;28;20190;-77
2022/03/01 07:37:53;;;;;;;11.05;7.78;;;;;;;;;;4972822;28;20198;-75
2022/03/01 07:40:21;;;;;;;10.30;7.60;;;;;;;;;;4973628;28;20568;-75
2022/03/01 07:42:49;;;;;;;7.72;5.78;;;;;;;;;;4971798;28;20212;-76
2022/03/01 07:45:16;;;;;;;7.90;6.53;;;;;;;;;;4970670;28;20206;-78
2022/03/01 07:47:45;;;;;;;9.52;7.13;;;;;;;;;;4970715;28;20233;-76
2022/03/01 07:50:12;;;;;;;7.28;5.90;;;;;;;;;;4968839;28;20201;-75
2022/03/01 07:52:39;;;;;;;13.23;6.63;;;;;;;;;;4972846;28;20257;-75
2022/03/01 07:55:07;;;;;;;7.47;6.15;;;;;;;;;;4973756;28;20197;-75
2022/03/01 07:57:34;;;;;;;11.88;7.75;;;;;;;;;;4970637;28;20202;-75
2022/03/01 08:00:02;;;;;;;10.60;7.30;;;;;;;;;;4970991;28;20209;-75
2022/03/01 08:02:29;;;;;;;9.23;6.05;;;;;;;;;;4973310;28;20200;-74
2022/03/01 08:04:57;;;;;;;9.23;6.80;;;;;;;;;;4970246;28;20297;-75
2022/03/01 08:07:25;;;;;;;9.93;7.13;;;;;;;;;;4965855;28;20202;-75
2022/03/01 08:09:52;;;;;;;10.38;7.00;;;;;;;;;;4972135;28;20193;-75
2022/03/01 08:12:19;;;;;;;8.55;6.05;;;;;;;;;;4974977;28;20702;-75
2022/03/01 08:14:46;;;;;;;8.80;6.15;;;;;;;;;;4974360;28;20699;-76
2022/03/01 08:17:13;;;;;;;9.43;6.40;;;;;;;;;;4966864;28;20539;-76
2022/03/01 08:19:40;;;;;;;8.43;6.60;;;;;;;;;;4968053;28;20204;-75
2022/03/01 08:22:09;;;;;;;11.25;6.63;;;;;;;;;;4968351;28;20309;-75
2022/03/01 08:24:36;;;;;;;9.50;6.20;;;;;;;;;;4973069;28;20665;-74
2022/03/01 08:27:03;;;;;;;10.32;6.85;;;;;;;;;;4969410;28;20221;-75
2022/03/01 08:29:30;;;;;;;7.85;5.80;;;;;;;;;;4969517;28;20656;-75
2022/03/01 08:31:57;;;;;;;9.85;6.90;;;;;;;;;;4971234;28;20561;-75
2022/03/01 08:34:24;;;;;;;9.23;6.32;;;;;;;;;;4974538;28;20190;-75
2022/03/01 08:36:51;;;;;;;12.43;6.57;;;;;;;;;;4969853;28;20194;-76
2022/03/01 08:39:20;;;;;;;8.88;6.97;;;;;;;;;;4968496;28;20193;-75
2022/03/01 08:41:47;;;;;;;6.70;6.00;;;;;;;;;;4971754;28;20198;-77
2022/03/01 08:44:14;;;;;;;8.13;5.60;;;;;;;;;;4968761;28;20201;-76
2022/03/01 08:46:41;;;;;;;7.75;5.82;;;;;;;;;;4966651;28;20201;-74
2022/03/01 08:49:08;;;;;;;10.98;6.50;;;;;;;;;;4975491;28;20193;-74
2022/03/01 08:51:35;;;;;;;10.00;6.38;;;;;;;;;;4969386;28;20200;-75
2022/03/01 08:54:03;;;;;;;7.47;5.90;;;;;;;;;;4967637;28;20214;-74
2022/03/01 08:56:31;;;;;;;7.60;5.20;;;;;;;;;;4968067;28;20205;-76
2022/03/01 08:59:00;;;;;;;8.02;6.22;;;;;;;;;;4965054;28;20297;-75
2022/03/01 09:01:27;;;;;;;6.00;5.25;;;;;;;;;;4963382;28;20194;-75
2022/03/01 09:03:54;;;;;;;7.72;6.43;;;;;;;;;;4960681;28;20201;-76
2022/03/01 09:06:21;;;;;;;6.95;6.22;;;;;;;;;;4966014;28;20202;-75
2022/03/01 09:08:49;;;;;;;8.77;5.72;;;;;;;;;;4966407;28;20198;-78
2022/03/01 09:11:16;;;;;;;7.68;5.47;;;;;;;;;;4969902;28;20208;-78
2022/03/01 09:13:44;;;;;;;8.55;5.60;;;;;;;;;;4954173;28;20791;-82
2022/03/01 09:16:11;;;;;;;9.07;5.35;;;;;;;;;;4960765;28;20213;-79
2022/03/01 09:18:39;;;;;;;9.05;6.32;;;;;;;;;;4956523;28;20691;-81
2022/03/01 09:21:06;;;;;;;7.78;5.68;;;;;;;;;;4954020;28;20700;-80
2022/03/01 09:23:33;;;;;;;6.90;5.90;;;;;;;;;;4957702;28;20218;-79
2022/03/01 09:26:00;;;;;;;11.38;6.25;;;;;;;;;;4955359;28;20208;-82
2022/03/01 09:28:28;;;;;;;9.63;4.95;;;;;;;;;;4954941;28;20209;-79
2022/03/01 09:30:56;;;;;;;8.85;5.63;;;;;;;;;;4958107;28;20194;-79
2022/03/01 09:33:23;;;;;;;9.70;6.03;;;;;;;;;;4967357;28;20225;-79
2022/03/01 09:35:50;;;;;;;8.35;5.38;;;;;;;;;;4968395;28;20209;-81
2022/03/01 09:38:17;;;;;;;5.15;4.15;;;;;;;;;;4971613;28;20551;-81
2022/03/01 09:40:47;;;;;;;8.05;5.65;;;;;;;;;;4972803;28;20509;-75
2022/03/01 09:43:15;;;;;;;6.78;4.75;;;;;;;;;;4968984;28;20553;-76
2022/03/01 09:45:42;;;;;;;6.97;5.35;;;;;;;;;;4968609;28;20288;-75
2022/03/01 09:48:10;;;;;;;10.02;5.25;;;;;;;;;;4967918;28;20194;-76
2022/03/01 09:50:37;;;;;;;8.18;5.68;;;;;;;;;;4961582;28;20205;-77
2022/03/01 09:53:04;;;;;;;8.48;5.28;;;;;;;;;;4969125;28;20229;-78
2022/03/01 09:55:32;;;;;;;6.65;5.55;;;;;;;;;;4967701;28;20189;-76
2022/03/01 09:57:59;;;;;;;7.47;5.78;;;;;;;;;;4971254;28;20209;-75
2022/03/01 10:00:26;;;;;;;7.65;5.00;;;;;;;;;;4971716;28;20661;-75
2022/03/01 10:02:55;;;;;;;7.63;5.18;;;;;;;;;;4969558;28;20205;-75
2022/03/01 10:05:32;;;;;;;7.32;5.68;;;;;;;;;;4969596;28;20194;-74
2022/03/01 10:08:07;;;;;;;7.15;4.88;;;;;;;;;;4963306;28;20564;-75
2022/03/01 10:10:37;;;;;;;8.75;4.97;;;;;;;;;;4966689;28;20201;-75
2022/03/01 10:13:04;;;;;;;6.10;4.70;;;;;;;;;;4972547;28;20217;-74
2022/03/01 10:15:32;;;;;;;5.63;4.95;;;;;;;;;;4970209;28;20199;-75
2022/03/01 10:18:00;;;;;;;7.80;5.32;;;;;;;;;;4961334;28;20298;-75
2022/03/01 10:20:28;;;;;;;6.50;4.90;;;;;;;;;;4971358;28;20198;-76
2022/03/01 10:22:58;;;;;;;4.82;3.90;;;;;;;;;;4967146;28;20206;-75
2022/03/01 10:25:26;;;;;;;6.60;4.55;;;;;;;;;;4969804;28;20224;-76
2022/03/01 10:27:54;;;;;;;6.47;4.53;;;;;;;;;;4968869;28;20281;-75
2022/03/01 10:30:25;;;;;;;8.57;5.05;;;;;;;;;;4969440;28;20198;-75
2022/03/01 10:32:52;;;;;;;4.93;4.32;;;;;;;;;;4973205;28;20248;-73
2022/03/01 10:35:19;;;;;;;7.18;5.07;;;;;;;;;;4966951;28;20533;-74
2022/03/01 10:37:51;;;;;;;5.80;4.30;;;;;;;;;;4970106;28;20197;-74
2022/03/01 10:40:20;;;;;;;4.68;4.28;;;;;;;;;;4970742;28;20197;-74
2022/03/01 10:42:59;;;;;;;8.90;4.93;;;;;;;;;;4971762;28;20325;-74
2022/03/01 10:45:31;;;;;;;7.00;5.18;;;;;;;;;;4971735;28;20194;-74
2022/03/01 10:47:58;;;;;;;5.88;4.57;;;;;;;;;;4978307;28;20205;-74
2022/03/01 10:50:26;;;;;;;5.43;4.50;;;;;;;;;;4959075;28;20205;-74
2022/03/01 10:52:54;;;;;;;7.47;4.65;;;;;;;;;;4959559;28;20271;-74
2022/03/01 10:55:28;;;;;;;7.88;5.32;;;;;;;;;;4965155;28;20197;-72
2022/03/01 10:58:06;;;;;;;5.65;5.07;;;;;;;;;;4960296;28;20202;-73
2022/03/01 11:00:33;;;;;;;6.40;4.78;;;;;;;;;;4962356;28;20201;-73
2022/03/01 11:03:00;;;;;;;7.85;5.00;;;;;;;;;;4964878;28;20665;-73
2022/03/01 11:05:30;;;;;;;5.82;4.50;;;;;;;;;;4975817;28;20208;-73
2022/03/01 11:08:00;;;;;;;4.85;3.80;;;;;;;;;;4970596;28;20206;-73
2022/03/01 11:10:27;;;;;;;5.63;4.78;;;;;;;;;;4968983;28;20201;-73
2022/03/01 11:12:55;;;;;;;8.07;5.35;;;;;;;;;;4975314;28;20220;-73
2022/03/01 11:15:28;;;;;;;7.97;4.80;;;;;;;;;;4974785;28;20769;-73
2022/03/01 11:17:59;;;;;;;6.60;4.90;;;;;;;;;;4972497;28;20201;-73
2022/03/01 11:20:30;;;;;;;4.72;4.10;;;;;;;;;;4962161;28;20212;-74
2022/03/01 11:23:00;;;;;;;6.95;5.03;;;;;;;;;;4973855;28;20210;-73
2022/03/01 11:25:28;;;;;;;6.30;4.88;;;;;;;;;;4975585;28;20213;-73
2022/03/01 11:28:01;;;;;;;6.32;4.25;;;;;;;;;;4974830;28;20209;-73
2022/03/01 11:30:29;;;;;;;9.80;5.90;;;;;;;;;;4973327;28;20212;-73
2022/03/01 11:32:57;;;;;;;6.05;4.65;;;;;;;;;;4971524;28;20227;-73
2022/03/01 11:35:25;;;;;;;7.07;5.25;;;;;;;;;;4974431;28;20189;-74
2022/03/01 11:38:05;;;;;;;5.70;4.35;;;;;;;;;;4969879;28;20224;-74
2022/03/01 11:40:33;;;;;;;5.30;4.00;;;;;;;;;;4971753;28;20193;-73
2022/03/01 11:43:11;;;;;;;10.57;4.97;;;;;;;;;;4969991;28;20198;-75
2022/03/01 11:45:38;;;;;;;11.43;5.38;;;;;;;;;;4963326;28;20212;-73
2022/03/01 11:48:07;;;;;;;7.22;4.95;;;;;;;;;;4972126;28;20228;-73
2022/03/01 11:50:34;;;;;;;4.82;4.20;;;;;;;;;;4978755;28;20212;-73
2022/03/01 11:53:05;;;;;;;7.10;4.72;;;;;;;;;;4966028;28;20212;-73
2022/03/01 11:55:41;;;;;;;5.97;4.53;;;;;;;;;;4966438;28;20207;-73
2022/03/01 11:58:09;;;;;;;7.07;5.68;;;;;;;;;;4970770;28;20235;-73
2022/03/01 12:00:39;;;;;;;5.05;4.05;;;;;;;;;;4961546;28;20197;-73
2022/03/01 12:03:07;;;;;;;4.15;3.53;;;;;;;;;;4969526;28;20213;-74
2022/03/01 12:05:36;;;;;;;6.63;4.30;;;;;;;;;;4969342;28;20213;-73
2022/03/01 12:08:06;;;;;;;5.38;4.38;;;;;;;;;;4969036;28;20205;-73
2022/03/01 12:10:33;;;;;;;6.75;5.00;;;;;;;;;;4976429;28;20205;-73
2022/03/01 12:13:05;;;;;;;6.30;4.45;;;;;;;;;;4959865;28;20198;-73
2022/03/01 12:15:33;;;;;;;6.55;5.00;;;;;;;;;;4966552;28;20198;-74
2022/03/01 12:18:11;;;;;;;8.43;6.03;;;;;;;;;;4969207;28;20206;-74
2022/03/01 12:20:40;;;;;;;5.75;4.68;;;;;;;;;;4963874;28;20208;-74
2022/03/01 12:23:09;;;;;;;6.95;5.15;;;;;;;;;;4970238;28;20704;-75
2022/03/01 12:25:37;;;;;;;6.63;4.53;;;;;;;;;;4965393;28;20206;-73
2022/03/01 12:28:05;;;;;;;6.57;5.15;;;;;;;;;;4964573;28;20217;-75
2022/03/01 12:30:35;;;;;;;5.60;4.68;;;;;;;;;;4970303;28;20657;-74
2022/03/01 12:33:02;;;;;;;5.78;4.07;;;;;;;;;;4961459;28;20721;-74
2022/03/01 12:35:30;;;;;;;7.13;5.03;;;;;;;;;;4967642;28;20208;-74
2022/03/01 12:38:07;;;;;;;5.78;4.95;;;;;;;;;;4966893;28;20206;-74
2022/03/01 12:40:37;;;;;;;7.57;4.80;;;;;;;;;;4967070;28;20197;-74
2022/03/01 12:43:05;;;;;;;8.35;5.05;;;;;;;;;;4969625;28;20695;-73
2022/03/01 12:45:33;;;;;;;9.50;3.88;;;;;;;;;;4965663;28;20580;-73
2022/03/01 12:48:02;;;;;;;6.93;4.90;;;;;;;;;;4970101;28;20194;-74
2022/03/01 12:50:30;;;;;;;5.75;4.30;;;;;;;;;;4968310;28;20264;-74
2022/03/01 12:52:57;;;;;;;5.85;4.47;;;;;;;;;;4967178;28;20206;-73
2022/03/01 12:55:24;;;;;;;6.85;5.50;;;;;;;;;;4967736;28;20233;-74
2022/03/01 12:57:53;;;;;;;7.47;4.97;;;;;;;;;;4967033;28;20201;-74
2022/03/01 13:00:20;;;;;;;6.60;4.35;;;;;;;;;;4964611;28;20209;-76
2022/03/01 13:02:51;;;;;;;5.53;4.85;;;;;;;;;;4969274;28;20541;-75
2022/03/01 13:05:23;;;;;;;5.95;4.43;;;;;;;;;;4967738;28;20238;-75
2022/03/01 13:07:50;;;;;;;5.45;4.00;;;;;;;;;;4967915;28;20201;-74
2022/03/01 13:10:27;;;;;;;13.02;5.65;;;;;;;;;;4967989;28;20202;-74
2022/03/01 13:12:57;;;;;;;6.80;4.45;;;;;;;;;;4966432;28;20220;-74
2022/03/01 13:15:25;;;;;;;7.22;5.22;;;;;;;;;;4961192;28;20222;-75
2022/03/01 13:17:52;;;;;;;8.25;4.68;;;;;;;;;;4958900;28;20193;-74
2022/03/01 13:20:21;;;;;;;8.73;5.10;;;;;;;;;;4961378;28;20229;-74
2022/03/01 13:22:58;;;;;;;5.72;4.38;;;;;;;;;;4959098;28;20224;-74
2022/03/01 13:25:25;;;;;;;6.22;4.40;;;;;;;;;;4962420;28;20243;-74
2022/03/01 13:27:53;;;;;;;4.50;4.10;;;;;;;;;;4965712;28;20625;-75
2022/03/01 13:30:24;;;;;;;5.63;4.70;;;;;;;;;;4961434;28;20492;-73
2022/03/01 13:32:51;;;;;;;8.13;5.65;;;;;;;;;;4958421;28;20485;-73
2022/03/01 13:35:18;;;;;;;6.97;4.72;;;;;;;;;;4961105;28;20225;-73
2022/03/01 13:37:45;;;;;;;8.10;4.18;;;;;;;;;;4962141;28;20276;-73
2022/03/01 13:40:16;;;;;;;6.82;4.53;;;;;;;;;;4966672;28;20294;-74
2022/03/01 13:42:44;;;;;;;11.65;4.80;;;;;;;;;;4969878;28;20267;-74
2022/03/01 13:45:12;;;;;;;10.02;5.25;;;;;;;;;;4966490;28;20270;-73
2022/03/01 13:47:41;;;;;;;6.97;4.82;;;;;;;;;;4967985;28;20220;-72
2022/03/01 13:50:12;;;;;;;6.00;4.30;;;;;;;;;;4964427;28;20197;-75
2022/03/01 13:52:40;;;;;;;6.20;4.30;;;;;;;;;;4962365;28;20212;-73
2022/03/01 13:55:09;;;;;;;7.93;5.72;;;;;;;;;;4958143;28;20662;-75
2022/03/01 13:57:37;;;;;;;8.75;5.40;;;;;;;;;;4962275;28;20204;-73
2022/03/01 14:00:06;;;;;;;5.20;4.07;;;;;;;;;;4967153;28;20208;-73
2022/03/01 14:02:34;;;;;;;7.10;4.95;;;;;;;;;;4960040;28;22085;-73
2022/03/01 14:05:03;;;;;;;6.28;4.82;;;;;;;;;;4960473;28;20205;-73
2022/03/01 14:07:31;;;;;;;6.28;4.68;;;;;;;;;;4959510;28;20202;-73
2022/03/01 14:09:58;;;;;;;6.28;4.45;;;;;;;;;;4959118;28;20202;-74
2022/03/01 14:12:32;;;;;;;6.78;5.00;;;;;;;;;;4959676;28;20572;-74
2022/03/01 14:14:59;;;;;;;7.00;4.47;;;;;;;;;;4959333;28;20275;-75
2022/03/01 14:17:26;;;;;;;6.60;5.20;;;;;;;;;;4957641;28;20201;-74
2022/03/01 14:19:53;;;;;;;5.72;3.78;;;;;;;;;;4956128;28;20202;-74
2022/03/01 14:22:23;;;;;;;6.57;4.60;;;;;;;;;;4963112;28;20209;-74
2022/03/01 14:24:51;;;;;;;6.82;4.82;;;;;;;;;;4965108;28;20228;-74
2022/03/01 14:27:18;;;;;;;4.85;3.80;;;;;;;;;;4968200;28;20206;-74
2022/03/01 14:29:46;;;;;;;5.38;4.00;;;;;;;;;;4962286;28;20229;-74
2022/03/01 14:32:13;;;;;;;6.05;4.75;;;;;;;;;;4958777;28;20213;-74
2022/03/01 14:34:40;;;;;;;5.43;3.90;;;;;;;;;;4964525;28;20284;-73
2022/03/01 14:37:07;;;;;;;4.40;3.90;;;;;;;;;;4964243;28;20198;-74
2022/03/01 14:39:36;;;;;;;5.32;3.90;;;;;;;;;;4965418;28;20557;-74
2022/03/01 14:42:03;;;;;;;4.43;4.03;;;;;;;;;;4969245;28;20197;-74